Agua Caliente, CA

11:12 PM PDT on August 21, 2014 (GMT -0700)
NE Aguanga | Change Station
CLOSE
Current Station
Personal Weather Station
Location: Aguanga, CA
Elevation: 3724 ft
Nearby Weather Stations

Elev 3724 ft 33.49 °N, 116.78 °W | Updated 56 seconds ago

Clear
Clear
63.2 °F
Feels Like 63.2 °F
N
1.0
Wind Variable Wind from ESE
Gusts 21.0 mph

Today
High -- | Low -- °F
--% Chance of Precip.
Yesterday
High -- | Low -- °F
Precip. -- in
6:13 AM 7:25 PM
Waning Crescent, 10% visible
Pressure 29.94 in
Visibility 10.0 miles
Clouds Clear
Dew Point 50 °F
Humidity 63%
Rainfall 0.15 in
Snow Depth Not available.
UV 0 out of 12
Pollen 4.80 out of 12
Air Quality Not available.
Flu Activity Not available.
METAR KRNM 220553Z AUTO 30004KT 10SM CLR 18/16 A2998 RMK AO2 SLP138 60000 T01780161 10283 20178 51012 TSNO

More Conditions Fewer Conditions

Pressure 29.94 in
Visibility 10.0 miles
Clouds Clear
Dew Point 50 °F
Humidity 63%
Rainfall 0.15 in
Snow Depth Not available.
UV 0 out of 12
Pollen 4.80 out of 12
Air Quality Not available.
Flu Activity Not available.
METAR KRNM 220553Z AUTO 30004KT 10SM CLR 18/16 A2998 RMK AO2 SLP138 60000 T01780161 10283 20178 51012 TSNO

More Conditions Fewer Conditions

10-Day Weather Forecast

Almanac

Astronomy

Aug. 21, 2014 Rise Set
Actual Time 6:13 AM PDT 7:25 PM PDT
Civil Twilight 5:47 AM PDT 7:51 PM PDT
Nautical Twilight 5:16 AM PDT 8:21 PM PDT
Astronomical Twilight 4:44 AM PDT 8:53 PM PDT
Moon 2:52 AM PDT (8/21) 4:53 PM PDT (8/21)
Length of Visible Light 14h 03m
Length of Day
13h 11m
Tomorrow will be 1m 52s shorter.
Waning Crescent, 10% of the Moon is Illuminated
Aug 22
Waning Crescent
Aug 25
New
Sep 2
First Quarter
Sep 8
Full
Sep 15
Last Quarter

Community

WunderPhotos

Upload Photos

1,746,131 photos uploaded!

Nearby

Snow Depth

Station Depth Elevation
Leavitt Lake 1 in 9400 ft
Leavitt Meadows 1 in 7200 ft
Monitor Pass 0 in 8350 ft
Blue Lakes 0 in 8000 ft
Forestdale Creek 0 in 8029 ft

Earthquake Activity

City Distance Mag. Time & Date
No recent earthquake activity has been reported nearby.
Minimum magnitude displayed is 2.5.

Coastal Water Temperatures

Place Temperature
No Stations Reporting

Nearby Weather Stations